sensor_id;sensor_type;location;lat;lon;timestamp;pressure;altitude;pressure_sealevel;temperature;humidity
33185;BME280;19550;42.872;25.494;2023-11-22T00:01:15;95662.69;;;8.50;100.00
33185;BME280;19550;42.872;25.494;2023-11-22T00:03:42;95665.28;;;8.38;100.00
33185;BME280;19550;42.872;25.494;2023-11-22T00:06:09;95658.78;;;8.42;100.00
33185;BME280;19550;42.872;25.494;2023-11-22T00:08:37;95663.63;;;8.45;100.00
33185;BME280;19550;42.872;25.494;2023-11-22T00:11:04;95667.88;;;8.43;100.00
33185;BME280;19550;42.872;25.494;2023-11-22T00:13:31;95648.41;;;8.30;100.00
33185;BME280;19550;42.872;25.494;2023-11-22T00:16:00;95673.41;;;8.43;100.00
33185;BME280;19550;42.872;25.494;2023-11-22T00:18:26;95674.34;;;8.38;100.00
33185;BME280;19550;42.872;25.494;2023-11-22T00:20:53;95669.19;;;8.36;100.00
33185;BME280;19550;42.872;25.494;2023-11-22T00:23:20;95674.53;;;8.42;100.00
33185;BME280;19550;42.872;25.494;2023-11-22T00:25:52;95681.03;;;8.46;100.00
33185;BME280;19550;42.872;25.494;2023-11-22T00:28:19;95667.56;;;8.35;100.00
33185;BME280;19550;42.872;25.494;2023-11-22T00:30:48;95679.56;;;8.40;100.00
33185;BME280;19550;42.872;25.494;2023-11-22T00:33:16;95679.56;;;8.40;100.00
33185;BME280;19550;42.872;25.494;2023-11-22T00:35:43;95678.09;;;8.33;100.00
33185;BME280;19550;42.872;25.494;2023-11-22T00:38:10;95668.34;;;8.45;100.00
33185;BME280;19550;42.872;25.494;2023-11-22T00:40:37;95671.59;;;8.29;100.00
33185;BME280;19550;42.872;25.494;2023-11-22T00:43:04;95670.75;;;8.20;100.00
33185;BME280;19550;42.872;25.494;2023-11-22T00:45:31;95667.56;;;8.35;100.00
33185;BME280;19550;42.872;25.494;2023-11-22T00:47:59;95652.56;;;8.19;100.00
33185;BME280;19550;42.872;25.494;2023-11-22T00:50:27;95677.59;;;8.31;100.00
33185;BME280;19550;42.872;25.494;2023-11-22T00:52:54;95689.16;;;8.33;100.00
33185;BME280;19550;42.872;25.494;2023-11-22T00:55:21;95682.00;;;8.32;100.00
33185;BME280;19550;42.872;25.494;2023-11-22T00:57:47;95693.84;;;8.33;100.00
33185;BME280;19550;42.872;25.494;2023-11-22T01:00:15;95679.38;;;8.27;100.00
33185;BME280;19550;42.872;25.494;2023-11-22T01:02:42;95680.38;;;8.31;100.00
33185;BME280;19550;42.872;25.494;2023-11-22T01:05:09;95664.59;;;8.23;100.00
33185;BME280;19550;42.872;25.494;2023-11-22T01:07:39;95671.72;;;8.24;100.00
33185;BME280;19550;42.872;25.494;2023-11-22T01:10:06;95671.31;;;8.31;100.00
33185;BME280;19550;42.872;25.494;2023-11-22T01:12:33;95679.41;;;8.36;100.00
33185;BME280;19550;42.872;25.494;2023-11-22T01:15:00;95666.56;;;8.31;100.00
33185;BME280;19550;42.872;25.494;2023-11-22T01:17:27;95655.84;;;8.38;100.00
33185;BME280;19550;42.872;25.494;2023-11-22T01:19:54;95660.41;;;8.34;100.00
33185;BME280;19550;42.872;25.494;2023-11-22T01:22:21;95661.03;;;8.40;100.00
33185;BME280;19550;42.872;25.494;2023-11-22T01:24:49;95663.47;;;8.33;100.00
33185;BME280;19550;42.872;25.494;2023-11-22T01:27:16;95676.00;;;8.30;100.00
33185;BME280;19550;42.872;25.494;2023-11-22T01:29:43;95677.59;;;8.23;100.00
33185;BME280;19550;42.872;25.494;2023-11-22T01:32:09;95690.59;;;8.40;100.00
33185;BME280;19550;42.872;25.494;2023-11-22T01:34:36;95693.03;;;8.32;100.00
33185;BME280;19550;42.872;25.494;2023-11-22T01:37:03;95688.78;;;8.26;100.00
33185;BME280;19550;42.872;25.494;2023-11-22T01:39:31;95694.63;;;8.25;100.00
33185;BME280;19550;42.872;25.494;2023-11-22T01:41:59;95689.28;;;8.28;100.00
33185;BME280;19550;42.872;25.494;2023-11-22T01:44:26;95683.63;;;8.33;100.00
33185;BME280;19550;42.872;25.494;2023-11-22T01:46:53;95690.25;;;8.24;100.00
33185;BME280;19550;42.872;25.494;2023-11-22T01:49:21;95680.50;;;8.26;100.00
33185;BME280;19550;42.872;25.494;2023-11-22T01:51:49;95681.47;;;8.22;100.00
33185;BME280;19550;42.872;25.494;2023-11-22T01:54:18;95688.44;;;8.19;100.00
33185;BME280;19550;42.872;25.494;2023-11-22T01:56:46;95691.03;;;8.24;100.00
33185;BME280;19550;42.872;25.494;2023-11-22T01:59:14;95693.03;;;8.32;100.00
33185;BME280;19550;42.872;25.494;2023-11-22T02:01:42;95690.28;;;8.32;100.00
33185;BME280;19550;42.872;25.494;2023-11-22T02:04:12;95679.25;;;8.41;100.00
33185;BME280;19550;42.872;25.494;2023-11-22T02:06:39;95678.59;;;8.35;100.00
33185;BME280;19550;42.872;25.494;2023-11-22T02:09:06;95663.78;;;8.31;100.00
33185;BME280;19550;42.872;25.494;2023-11-22T02:11:38;95667.69;;;8.22;100.00
33185;BME280;19550;42.872;25.494;2023-11-22T02:14:07;95671.09;;;8.27;100.00
33185;BME280;19550;42.872;25.494;2023-11-22T02:16:36;95668.19;;;8.24;100.00
33185;BME280;19550;42.872;25.494;2023-11-22T02:19:05;95661.16;;;8.26;100.00
33185;BME280;19550;42.872;25.494;2023-11-22T02:21:32;95662.31;;;8.25;100.00
33185;BME280;19550;42.872;25.494;2023-11-22T02:24:01;95670.31;;;8.44;100.00
33185;BME280;19550;42.872;25.494;2023-11-22T02:26:28;95666.75;;;8.35;100.00
33185;BME280;19550;42.872;25.494;2023-11-22T02:28:56;95679.22;;;8.32;100.00
33185;BME280;19550;42.872;25.494;2023-11-22T02:31:24;95676.47;;;8.32;100.00
33185;BME280;19550;42.872;25.494;2023-11-22T02:33:53;95676.81;;;8.31;100.00
33185;BME280;19550;42.872;25.494;2023-11-22T02:36:20;95682.44;;;8.26;100.00
33185;BME280;19550;42.872;25.494;2023-11-22T02:38:48;95680.34;;;8.23;100.00
33185;BME280;19550;42.872;25.494;2023-11-22T02:41:17;95661.97;;;8.18;100.00
33185;BME280;19550;42.872;25.494;2023-11-22T02:43:44;95649.47;;;8.21;100.00
33185;BME280;19550;42.872;25.494;2023-11-22T02:46:11;95652.88;;;8.26;100.00
33185;BME280;19550;42.872;25.494;2023-11-22T02:48:39;95658.72;;;8.25;100.00
33185;BME280;19550;42.872;25.494;2023-11-22T02:51:06;95662.97;;;8.22;100.00
33185;BME280;19550;42.872;25.494;2023-11-22T02:53:33;95671.44;;;8.34;100.00
33185;BME280;19550;42.872;25.494;2023-11-22T02:56:00;95667.22;;;8.46;100.00
33185;BME280;19550;42.872;25.494;2023-11-22T02:58:29;95626.59;;;8.03;100.00
33185;BME280;19550;42.872;25.494;2023-11-22T03:00:56;95673.34;;;8.25;100.00
33185;BME280;19550;42.872;25.494;2023-11-22T03:03:23;95674.97;;;8.26;100.00
33185;BME280;19550;42.872;25.494;2023-11-22T03:05:50;95639.09;;;8.09;100.00
33185;BME280;19550;42.872;25.494;2023-11-22T03:08:17;95682.00;;;8.32;100.00
33185;BME280;19550;42.872;25.494;2023-11-22T03:10:44;95648.03;;;8.15;100.00
33185;BME280;19550;42.872;25.494;2023-11-22T03:13:11;95675.78;;;8.27;100.00
33185;BME280;19550;42.872;25.494;2023-11-22T03:15:39;95678.41;;;8.23;100.00
33185;BME280;19550;42.872;25.494;2023-11-22T03:18:08;95679.88;;;8.29;100.00
33185;BME280;19550;42.872;25.494;2023-11-22T03:20:36;95669.47;;;8.26;100.00
33185;BME280;19550;42.872;25.494;2023-11-22T03:23:03;95670.13;;;8.32;100.00
33185;BME280;19550;42.872;25.494;2023-11-22T03:25:30;95663.44;;;8.16;100.00
33185;BME280;19550;42.872;25.494;2023-11-22T03:27:57;95629.34;;;8.03;100.00
33185;BME280;19550;42.872;25.494;2023-11-22T03:30:24;95674.16;;;8.26;100.00
33185;BME280;19550;42.872;25.494;2023-11-22T03:32:52;95672.41;;;8.30;100.00
33185;BME280;19550;42.872;25.494;2023-11-22T03:35:19;95687.97;;;8.26;100.00
33185;BME280;19550;42.872;25.494;2023-11-22T03:37:46;95695.78;;;8.24;100.00
33185;BME280;19550;42.872;25.494;2023-11-22T03:40:13;95690.88;;;8.21;100.00
33185;BME280;19550;42.872;25.494;2023-11-22T03:42:41;95686.72;;;8.41;100.00
33185;BME280;19550;42.872;25.494;2023-11-22T03:45:08;95682.34;;;8.48;100.00
33185;BME280;19550;42.872;25.494;2023-11-22T03:47:36;95674.34;;;8.38;100.00
33185;BME280;19550;42.872;25.494;2023-11-22T03:50:06;95636.66;;;8.08;100.00
33185;BME280;19550;42.872;25.494;2023-11-22T03:52:33;95670.13;;;8.23;100.00
33185;BME280;19550;42.872;25.494;2023-11-22T03:55:00;95677.09;;;8.29;100.00
33185;BME280;19550;42.872;25.494;2023-11-22T03:57:28;95690.31;;;8.50;100.00
33185;BME280;19550;42.872;25.494;2023-11-22T03:59:55;95686.56;;;8.37;100.00
33185;BME280;19550;42.872;25.494;2023-11-22T04:02:21;95682.50;;;8.34;100.00
33185;BME280;19550;42.872;25.494;2023-11-22T04:04:48;95686.06;;;8.35;100.00
33185;BME280;19550;42.872;25.494;2023-11-22T04:07:16;95679.22;;;8.32;100.00
33185;BME280;19550;42.872;25.494;2023-11-22T04:09:44;95656.63;;;8.13;100.00
33185;BME280;19550;42.872;25.494;2023-11-22T04:12:11;95675.63;;;8.15;100.00
33185;BME280;19550;42.872;25.494;2023-11-22T04:14:38;95686.50;;;8.20;100.00
33185;BME280;19550;42.872;25.494;2023-11-22T04:17:04;95693.81;;;8.24;100.00
33185;BME280;19550;42.872;25.494;2023-11-22T04:19:31;95698.03;;;8.22;100.00
33185;BME280;19550;42.872;25.494;2023-11-22T04:21:58;95698.53;;;8.15;100.00
33185;BME280;19550;42.872;25.494;2023-11-22T04:24:27;95698.03;;;8.13;100.00
33185;BME280;19550;42.872;25.494;2023-11-22T04:26:56;95694.63;;;8.16;100.00
33185;BME280;19550;42.872;25.494;2023-11-22T04:29:28;95653.47;;;7.72;100.00
33185;BME280;19550;42.872;25.494;2023-11-22T04:32:00;95665.66;;;7.71;100.00
33185;BME280;19550;42.872;25.494;2023-11-22T04:34:28;95724.34;;;8.19;100.00
33185;BME280;19550;42.872;25.494;2023-11-22T04:36:56;95731.97;;;8.14;100.00
33185;BME280;19550;42.872;25.494;2023-11-22T04:39:24;95676.34;;;7.72;100.00
33185;BME280;19550;42.872;25.494;2023-11-22T04:41:56;95697.97;;;7.87;100.00
33185;BME280;19550;42.872;25.494;2023-11-22T04:44:25;95662.38;;;7.69;100.00
33185;BME280;19550;42.872;25.494;2023-11-22T04:46:53;95691.00;;;7.90;100.00
33185;BME280;19550;42.872;25.494;2023-11-22T04:49:22;95646.16;;;7.67;100.00
33185;BME280;19550;42.872;25.494;2023-11-22T04:51:51;95676.69;;;7.79;100.00
33185;BME280;19550;42.872;25.494;2023-11-22T04:54:23;95669.84;;;7.68;100.00
33185;BME280;19550;42.872;25.494;2023-11-22T04:57:00;95672.75;;;7.72;100.00
33185;BME280;19550;42.872;25.494;2023-11-22T04:59:27;95665.00;;;7.74;100.00
33185;BME280;19550;42.872;25.494;2023-11-22T05:01:55;95674.06;;;7.74;100.00
33185;BME280;19550;42.872;25.494;2023-11-22T05:04:24;95718.13;;;7.96;100.00
33185;BME280;19550;42.872;25.494;2023-11-22T05:06:53;95704.09;;;7.76;100.00
33185;BME280;19550;42.872;25.494;2023-11-22T05:09:23;95699.72;;;7.75;100.00
33185;BME280;19550;42.872;25.494;2023-11-22T05:12:02;95729.13;;;7.88;100.00
33185;BME280;19550;42.872;25.494;2023-11-22T05:14:37;95711.41;;;7.80;100.00
33185;BME280;19550;42.872;25.494;2023-11-22T05:17:15;95715.84;;;7.90;100.00
33185;BME280;19550;42.872;25.494;2023-11-22T05:19:43;95723.16;;;7.94;100.00
33185;BME280;19550;42.872;25.494;2023-11-22T05:22:13;95718.25;;;7.91;100.00
33185;BME280;19550;42.872;25.494;2023-11-22T05:24:43;95751.28;;;8.14;100.00
33185;BME280;19550;42.872;25.494;2023-11-22T05:27:12;95728.00;;;7.89;100.00
33185;BME280;19550;42.872;25.494;2023-11-22T05:29:41;95730.44;;;7.90;100.00
33185;BME280;19550;42.872;25.494;2023-11-22T05:32:20;95737.25;;;7.93;100.00
33185;BME280;19550;42.872;25.494;2023-11-22T05:34:47;95732.41;;;7.98;100.00
33185;BME280;19550;42.872;25.494;2023-11-22T05:37:15;95730.81;;;7.97;100.00
33185;BME280;19550;42.872;25.494;2023-11-22T05:39:42;95791.00;;;8.35;100.00
33185;BME280;19550;42.872;25.494;2023-11-22T05:42:11;95729.81;;;8.02;100.00
33185;BME280;19550;42.872;25.494;2023-11-22T05:44:38;95731.97;;;8.14;100.00
33185;BME280;19550;42.872;25.494;2023-11-22T05:47:06;95795.72;;;8.43;100.00
33185;BME280;19550;42.872;25.494;2023-11-22T05:49:34;95730.47;;;8.08;100.00
33185;BME280;19550;42.872;25.494;2023-11-22T05:52:04;95737.28;;;8.02;100.00
33185;BME280;19550;42.872;25.494;2023-11-22T05:54:32;95741.38;;;8.04;100.00
33185;BME280;19550;42.872;25.494;2023-11-22T05:57:00;95753.56;;;8.20;100.00
33185;BME280;19550;42.872;25.494;2023-11-22T05:59:28;95746.53;;;8.06;100.00
33185;BME280;19550;42.872;25.494;2023-11-22T06:01:56;95811.63;;;8.38;100.00
33185;BME280;19550;42.872;25.494;2023-11-22T06:04:24;95757.09;;;8.04;100.00
33185;BME280;19550;42.872;25.494;2023-11-22T06:06:51;95764.09;;;8.10;100.00
33185;BME280;19550;42.872;25.494;2023-11-22T06:09:18;95777.91;;;8.18;100.00
33185;BME280;19550;42.872;25.494;2023-11-22T06:11:45;95773.03;;;8.15;100.00
33185;BME280;19550;42.872;25.494;2023-11-22T06:14:13;95822.69;;;8.46;100.00
33185;BME280;19550;42.872;25.494;2023-11-22T06:16:42;95761.00;;;8.11;100.00
33185;BME280;19550;42.872;25.494;2023-11-22T06:19:10;95761.50;;;8.13;100.00
33185;BME280;19550;42.872;25.494;2023-11-22T06:21:37;95781.72;;;8.31;100.00
33185;BME280;19550;42.872;25.494;2023-11-22T06:24:05;95803.84;;;8.48;100.00
33185;BME280;19550;42.872;25.494;2023-11-22T06:26:34;95817.69;;;8.57;100.00
33185;BME280;19550;42.872;25.494;2023-11-22T06:29:02;95826.63;;;8.71;100.00
33185;BME280;19550;42.872;25.494;2023-11-22T06:31:29;95809.56;;;8.69;100.00
33185;BME280;19550;42.872;25.494;2023-11-22T06:34:02;95775.72;;;8.46;100.00
33185;BME280;19550;42.872;25.494;2023-11-22T06:36:29;95775.25;;;8.44;100.00
33185;BME280;19550;42.872;25.494;2023-11-22T06:38:56;95778.34;;;8.43;100.00
33185;BME280;19550;42.872;25.494;2023-11-22T06:41:25;95766.50;;;8.51;100.00
33185;BME280;19550;42.872;25.494;2023-11-22T06:44:09;95831.88;;;8.90;100.00
33185;BME280;19550;42.872;25.494;2023-11-22T06:46:39;95786.50;;;8.56;100.00
33185;BME280;19550;42.872;25.494;2023-11-22T06:49:21;95832.19;;;8.88;100.00
33185;BME280;19550;42.872;25.494;2023-11-22T06:52:00;95804.53;;;8.80;100.00
33185;BME280;19550;42.872;25.494;2023-11-22T06:54:29;95797.88;;;8.81;100.00
33185;BME280;19550;42.872;25.494;2023-11-22T06:56:57;95777.88;;;8.66;100.00
33185;BME280;19550;42.872;25.494;2023-11-22T06:59:33;95778.06;;;8.70;100.00
33185;BME280;19550;42.872;25.494;2023-11-22T07:02:05;95780.47;;;8.71;100.00
33185;BME280;19550;42.872;25.494;2023-11-22T07:04:46;95828.63;;;8.96;100.00
33185;BME280;19550;42.872;25.494;2023-11-22T07:07:14;95808.75;;;8.86;100.00
33185;BME280;19550;42.872;25.494;2023-11-22T07:09:42;95810.22;;;8.74;100.00
33185;BME280;19550;42.872;25.494;2023-11-22T07:12:09;95837.72;;;8.88;100.00
33185;BME280;19550;42.872;25.494;2023-11-22T07:14:36;95822.59;;;8.77;100.00
33185;BME280;19550;42.872;25.494;2023-11-22T07:17:04;95825.50;;;8.81;100.00
33185;BME280;19550;42.872;25.494;2023-11-22T07:19:32;95826.81;;;8.83;100.00
33185;BME280;19550;42.872;25.494;2023-11-22T07:22:01;95880.66;;;9.20;100.00
33185;BME280;19550;42.872;25.494;2023-11-22T07:24:29;95896.44;;;9.20;100.00
33185;BME280;19550;42.872;25.494;2023-11-22T07:26:59;95839.19;;;8.94;100.00
33185;BME280;19550;42.872;25.494;2023-11-22T07:29:28;95885.88;;;9.30;100.00
33185;BME280;19550;42.872;25.494;2023-11-22T07:31:55;95841.47;;;9.01;100.00
33185;BME280;19550;42.872;25.494;2023-11-22T07:34:23;95901.31;;;9.31;100.00
33185;BME280;19550;42.872;25.494;2023-11-22T07:36:50;95848.94;;;9.00;100.00
33185;BME280;19550;42.872;25.494;2023-11-22T07:39:19;95843.91;;;9.02;100.00
33185;BME280;19550;42.872;25.494;2023-11-22T07:41:52;95857.91;;;9.23;100.00
33185;BME280;19550;42.872;25.494;2023-11-22T07:44:20;95845.19;;;9.13;100.00
33185;BME280;19550;42.872;25.494;2023-11-22T07:46:49;95847.78;;;9.18;100.00
33185;BME280;19550;42.872;25.494;2023-11-22T07:49:17;95851.38;;;9.19;100.00
33185;BME280;19550;42.872;25.494;2023-11-22T07:51:44;95858.06;;;9.27;100.00
33185;BME280;19550;42.872;25.494;2023-11-22T07:54:12;95853.84;;;9.29;100.00
33185;BME280;19550;42.872;25.494;2023-11-22T07:56:42;95881.31;;;9.43;100.00
33185;BME280;19550;42.872;25.494;2023-11-22T07:59:09;95867.31;;;9.39;100.00
33185;BME280;19550;42.872;25.494;2023-11-22T08:01:38;95900.84;;;9.64;100.00
33185;BME280;19550;42.872;25.494;2023-11-22T08:04:06;95910.59;;;9.70;100.00
33185;BME280;19550;42.872;25.494;2023-11-22T08:06:35;95941.19;;;9.82;100.00
33185;BME280;19550;42.872;25.494;2023-11-22T08:09:02;95890.09;;;9.53;100.00
33185;BME280;19550;42.872;25.494;2023-11-22T08:11:30;95916.28;;;9.73;100.00
33185;BME280;19550;42.872;25.494;2023-11-22T08:14:01;95888.63;;;9.56;100.00
33185;BME280;19550;42.872;25.494;2023-11-22T08:16:35;95946.38;;;10.01;100.00
33185;BME280;19550;42.872;25.494;2023-11-22T08:19:20;95902.78;;;9.63;100.00
33185;BME280;19550;42.872;25.494;2023-11-22T08:22:06;95913.19;;;9.66;100.00
33185;BME280;19550;42.872;25.494;2023-11-22T08:24:58;95912.22;;;9.71;100.00
33185;BME280;19550;42.872;25.494;2023-11-22T08:27:29;95922.94;;;9.89;100.00
33185;BME280;19550;42.872;25.494;2023-11-22T08:29:58;95947.38;;;9.96;100.00
33185;BME280;19550;42.872;25.494;2023-11-22T08:32:30;95924.72;;;9.85;100.00
33185;BME280;19550;42.872;25.494;2023-11-22T08:34:58;95947.03;;;9.97;100.00
33185;BME280;19550;42.872;25.494;2023-11-22T08:37:33;95941.19;;;9.90;100.00
33185;BME280;19550;42.872;25.494;2023-11-22T08:40:05;95927.69;;;9.80;100.00
33185;BME280;19550;42.872;25.494;2023-11-22T08:42:34;95926.69;;;9.85;100.00
33185;BME280;19550;42.872;25.494;2023-11-22T08:45:04;95978.59;;;10.14;100.00
33185;BME280;19550;42.872;25.494;2023-11-22T08:47:33;95972.56;;;10.12;100.00
33185;BME280;19550;42.872;25.494;2023-11-22T08:50:14;95998.97;;;10.26;100.00
33185;BME280;19550;42.872;25.494;2023-11-22T08:52:45;95967.22;;;10.15;100.00
33185;BME280;19550;42.872;25.494;2023-11-22T08:55:12;95963.63;;;10.15;100.00
33185;BME280;19550;42.872;25.494;2023-11-22T08:57:40;95977.50;;;10.23;100.00
33185;BME280;19550;42.872;25.494;2023-11-22T09:00:09;95962.31;;;10.12;100.00
33185;BME280;19550;42.872;25.494;2023-11-22T09:02:37;95942.97;;;10.04;100.00
33185;BME280;19550;42.872;25.494;2023-11-22T09:05:05;96008.41;;;10.34;100.00
33185;BME280;19550;42.872;25.494;2023-11-22T09:07:33;96009.25;;;10.34;100.00
33185;BME280;19550;42.872;25.494;2023-11-22T09:10:04;96005.31;;;10.35;100.00
33185;BME280;19550;42.872;25.494;2023-11-22T09:12:35;96005.66;;;10.25;100.00
33185;BME280;19550;42.872;25.494;2023-11-22T09:15:05;96008.75;;;10.32;100.00
33185;BME280;19550;42.872;25.494;2023-11-22T09:17:36;95997.19;;;10.13;100.00
33185;BME280;19550;42.872;25.494;2023-11-22T09:20:08;96008.59;;;10.20;100.00
33185;BME280;19550;42.872;25.494;2023-11-22T09:22:36;96011.50;;;10.32;100.00
33185;BME280;19550;42.872;25.494;2023-11-22T09:25:05;96006.97;;;10.28;100.00
33185;BME280;19550;42.872;25.494;2023-11-22T09:27:34;96010.06;;;10.35;100.00
33185;BME280;19550;42.872;25.494;2023-11-22T09:30:03;96021.09;;;10.52;100.00
33185;BME280;19550;42.872;25.494;2023-11-22T09:32:30;96007.72;;;10.63;100.00
33185;BME280;19550;42.872;25.494;2023-11-22T09:34:59;96006.72;;;10.67;100.00
33185;BME280;19550;42.872;25.494;2023-11-22T09:37:27;96015.63;;;10.90;100.00
33185;BME280;19550;42.872;25.494;2023-11-22T09:39:55;96019.16;;;10.91;100.00
33185;BME280;19550;42.872;25.494;2023-11-22T09:42:23;96004.03;;;10.88;100.00
33185;BME280;19550;42.872;25.494;2023-11-22T09:44:51;96010.53;;;10.92;100.00
33185;BME280;19550;42.872;25.494;2023-11-22T09:47:18;96021.47;;;10.89;100.00
33185;BME280;19550;42.872;25.494;2023-11-22T09:49:48;96024.59;;;10.79;100.00
33185;BME280;19550;42.872;25.494;2023-11-22T09:52:21;96009.63;;;10.71;100.00
33185;BME280;19550;42.872;25.494;2023-11-22T09:54:50;96028.81;;;10.85;100.00
33185;BME280;19550;42.872;25.494;2023-11-22T09:57:18;96033.19;;;10.94;100.00
33185;BME280;19550;42.872;25.494;2023-11-22T09:59:47;96030.56;;;10.98;100.00
33185;BME280;19550;42.872;25.494;2023-11-22T10:02:18;96035.47;;;10.92;100.00
33185;BME280;19550;42.872;25.494;2023-11-22T10:04:45;96028.16;;;10.88;100.00
33185;BME280;19550;42.872;25.494;2023-11-22T10:07:14;96032.53;;;10.97;100.00
33185;BME280;19550;42.872;25.494;2023-11-22T10:09:42;96030.53;;;11.06;100.00
33185;BME280;19550;42.872;25.494;2023-11-22T10:12:12;96043.06;;;11.12;100.00
33185;BME280;19550;42.872;25.494;2023-11-22T10:14:40;95997.16;;;10.94;100.00
33185;BME280;19550;42.872;25.494;2023-11-22T10:17:07;96026.75;;;11.11;100.00
33185;BME280;19550;42.872;25.494;2023-11-22T10:19:35;96038.16;;;11.18;100.00
33185;BME280;19550;42.872;25.494;2023-11-22T10:22:02;96027.06;;;11.18;100.00
33185;BME280;19550;42.872;25.494;2023-11-22T10:24:30;96037.19;;;11.14;100.00
33185;BME280;19550;42.872;25.494;2023-11-22T10:27:00;96035.59;;;11.04;100.00
33185;BME280;19550;42.872;25.494;2023-11-22T10:29:28;96034.44;;;11.05;100.00
33185;BME280;19550;42.872;25.494;2023-11-22T10:31:55;96032.19;;;10.99;100.00
33185;BME280;19550;42.872;25.494;2023-11-22T10:34:23;96041.66;;;10.98;100.00
33185;BME280;19550;42.872;25.494;2023-11-22T10:36:51;96004.25;;;10.66;100.00
33185;BME280;19550;42.872;25.494;2023-11-22T10:39:21;96043.34;;;10.90;100.00
33185;BME280;19550;42.872;25.494;2023-11-22T10:41:48;96024.78;;;10.82;100.00
33185;BME280;19550;42.872;25.494;2023-11-22T10:44:20;95991.53;;;10.65;100.00
33185;BME280;19550;42.872;25.494;2023-11-22T10:46:48;96005.38;;;10.73;100.00
33185;BME280;19550;42.872;25.494;2023-11-22T10:49:17;95998.72;;;10.66;100.00
33185;BME280;19550;42.872;25.494;2023-11-22T10:51:46;96031.25;;;10.95;100.00
33185;BME280;19550;42.872;25.494;2023-11-22T10:54:18;96055.53;;;10.98;100.00
33185;BME280;19550;42.872;25.494;2023-11-22T10:56:54;96027.06;;;10.80;100.00
33185;BME280;19550;42.872;25.494;2023-11-22T10:59:26;96053.72;;;11.02;100.00
33185;BME280;19550;42.872;25.494;2023-11-22T11:01:56;96024.94;;;10.77;100.00
33185;BME280;19550;42.872;25.494;2023-11-22T11:04:31;96049.03;;;10.94;100.00
33185;BME280;19550;42.872;25.494;2023-11-22T11:07:02;96006.22;;;10.65;100.00
33185;BME280;19550;42.872;25.494;2023-11-22T11:09:33;96035.81;;;10.91;100.00
33185;BME280;19550;42.872;25.494;2023-11-22T11:12:02;96056.63;;;11.05;100.00
33185;BME280;19550;42.872;25.494;2023-11-22T11:14:31;96028.97;;;10.88;100.00
33185;BME280;19550;42.872;25.494;2023-11-22T11:16:59;96026.53;;;10.87;100.00
33185;BME280;19550;42.872;25.494;2023-11-22T11:19:27;96063.97;;;11.10;100.00
33185;BME280;19550;42.872;25.494;2023-11-22T11:21:56;96053.69;;;11.10;100.00
33185;BME280;19550;42.872;25.494;2023-11-22T11:24:23;96058.94;;;11.03;100.00
33185;BME280;19550;42.872;25.494;2023-11-22T11:26:50;96060.91;;;11.03;100.00
33185;BME280;19550;42.872;25.494;2023-11-22T11:29:33;96060.09;;;11.02;100.00
33185;BME280;19550;42.872;25.494;2023-11-22T11:32:02;96058.66;;;10.96;100.00
33185;BME280;19550;42.872;25.494;2023-11-22T11:34:30;96048.84;;;10.99;100.00
33185;BME280;19550;42.872;25.494;2023-11-22T11:36:59;96056.00;;;11.00;100.00
33185;BME280;19550;42.872;25.494;2023-11-22T11:39:27;96061.75;;;10.95;100.00
33185;BME280;19550;42.872;25.494;2023-11-22T11:42:08;96069.88;;;11.00;100.00
33185;BME280;19550;42.872;25.494;2023-11-22T11:44:37;96071.41;;;10.89;100.00
33185;BME280;19550;42.872;25.494;2023-11-22T11:47:11;96066.69;;;10.81;100.00
33185;BME280;19550;42.872;25.494;2023-11-22T11:49:38;96060.69;;;10.70;100.00
33185;BME280;19550;42.872;25.494;2023-11-22T11:52:05;96067.38;;;10.60;100.00
33185;BME280;19550;42.872;25.494;2023-11-22T11:54:33;96034.16;;;10.43;100.00
33185;BME280;19550;42.872;25.494;2023-11-22T11:57:00;96067.69;;;10.59;100.00
33185;BME280;19550;42.872;25.494;2023-11-22T11:59:27;96070.47;;;10.59;100.00
33185;BME280;19550;42.872;25.494;2023-11-22T12:01:56;96076.34;;;10.57;100.00
33185;BME280;19550;42.872;25.494;2023-11-22T12:04:25;96077.81;;;10.46;100.00
33185;BME280;19550;42.872;25.494;2023-11-22T12:06:52;96079.31;;;10.44;100.00
33185;BME280;19550;42.872;25.494;2023-11-22T12:09:23;96101.78;;;10.51;100.00
33185;BME280;19550;42.872;25.494;2023-11-22T12:11:51;96105.84;;;10.45;100.00
33185;BME280;19550;42.872;25.494;2023-11-22T12:14:19;96092.50;;;10.47;100.00
33185;BME280;19550;42.872;25.494;2023-11-22T12:16:45;96098.22;;;10.50;100.00
33185;BME280;19550;42.872;25.494;2023-11-22T12:19:22;96089.91;;;10.42;100.00
33185;BME280;19550;42.872;25.494;2023-11-22T12:21:50;96092.66;;;10.42;100.00
33185;BME280;19550;42.872;25.494;2023-11-22T12:24:17;96090.72;;;10.33;100.00
33185;BME280;19550;42.872;25.494;2023-11-22T12:26:45;96061.84;;;10.09;100.00
33185;BME280;19550;42.872;25.494;2023-11-22T12:29:12;96062.50;;;10.06;100.00
33185;BME280;19550;42.872;25.494;2023-11-22T12:31:47;96087.94;;;10.33;100.00
33185;BME280;19550;42.872;25.494;2023-11-22T12:34:16;96091.53;;;10.34;100.00
33185;BME280;19550;42.872;25.494;2023-11-22T12:36:45;96101.63;;;10.47;100.00
33185;BME280;19550;42.872;25.494;2023-11-22T12:39:15;96115.13;;;10.57;100.00
33185;BME280;19550;42.872;25.494;2023-11-22T12:41:44;96061.56;;;10.27;100.00
33185;BME280;19550;42.872;25.494;2023-11-22T12:44:12;96061.56;;;10.27;100.00
33185;BME280;19550;42.872;25.494;2023-11-22T12:46:48;96122.31;;;10.58;100.00
33185;BME280;19550;42.872;25.494;2023-11-22T12:49:21;96144.34;;;10.63;100.00
33185;BME280;19550;42.872;25.494;2023-11-22T12:51:52;96144.97;;;10.60;100.00
33185;BME280;19550;42.872;25.494;2023-11-22T12:54:21;96099.00;;;10.25;100.00
33185;BME280;19550;42.872;25.494;2023-11-22T12:56:56;96107.50;;;10.20;100.00